Pacific Topaz — D5CH7 — position and weather

sailwx.info

Track history (hours):
 
Tides and Currents Weather Stations Pressure Air Temp Water Temp Dewpoint Dewpoint Depression Visibility Wind Speed Wind Dir Waves Ship Positions

Pacific Topaz

Last reported at 2017-Oct-01 08:53 UTC. Time now 2017-Oct-22 13:25 UTC.
Position N 27°37' W 015°16'.
Warning: this ship's position is 21 days out of date.

Length 183 m; draft 11.7 m.

Type: Tanker. MMSI: 636015703.

Date/timePositionNaut miles runAvg speedWind from/ knotsBaromVisibWave heightAir tempDewpointWater temp
2017-Oct-01 08:53N 27°37' W 015°16'512.7
2017-Oct-01 08:30N 27°41' W 015°13'612.7
2017-Oct-01 08:00N 27°47' W 015°10'612.8
2017-Oct-01 07:30N 27°52' W 015°07'713.1
2017-Oct-01 07:00N 27°59' W 015°04'713.8
2017-Oct-01 06:30N 28°05' W 015°01'713.2
2017-Oct-01 06:00N 28°11' W 014°59'612.7
2017-Oct-01 05:31N 28°17' W 014°56'712.9
2017-Oct-01 05:00N 28°23' W 014°53'713.0
2017-Oct-01 04:30N 28°29' W 014°50'612.7
2017-Oct-01 04:01N 28°35' W 014°47'612.7
2017-Oct-01 03:31N 28°41' W 014°44'912.6
2017-Oct-01 02:50N 28°48' W 014°41'37212.8
2017-Sep-29 21:46N 34°23' W 011°30'312.7
2017-Sep-29 21:30N 34°25' W 011°28'1112.8
2017-Sep-29 20:40N 34°35' W 011°22'212.7
2017-Sep-29 20:31N 34°37' W 011°21'712.9
2017-Sep-29 19:56N 34°44' W 011°17'613.1
2017-Sep-29 19:30N 34°49' W 011°14'6113.2
2017-Sep-29 14:53N 35°43' W 010°42'513.3
2017-Sep-29 14:30N 35°48' W 010°39'612.9
2017-Sep-29 14:00N 35°54' W 010°36'1513.1
2017-Sep-29 12:52N 36°07' W 010°28'513.3
2017-Sep-29 12:29N 36°12' W 010°25'713.2
2017-Sep-29 11:59N 36°18' W 010°22'613.1
2017-Sep-29 11:30N 36°23' W 010°18'613.0
2017-Sep-29 11:00N 36°29' W 010°14'612.8
2017-Sep-29 10:30N 36°35' W 010°11'712.7
2017-Sep-29 09:59N 36°41' W 010°07'612.7
2017-Sep-29 09:30N 36°46' W 010°04'612.8
2017-Sep-29 09:00N 36°52' W 010°01'612.7
2017-Sep-29 08:30N 36°58' W 009°57'612.8
2017-Sep-29 08:00N 37°04' W 009°53'613.0
2017-Sep-29 07:30N 37°09' W 009°50'612.8
2017-Sep-29 07:00N 37°15' W 009°46'612.8
2017-Sep-29 06:31N 37°20' W 009°40'612.9
2017-Sep-29 06:00N 37°25' W 009°35'612.5
2017-Sep-29 05:30N 37°28' W 009°29'612.5
2017-Sep-29 05:00N 37°32' W 009°23'612.7
2017-Sep-29 04:30N 37°37' W 009°17'611.6
2017-Sep-29 04:00N 37°41' W 009°12'510.4
2017-Sep-29 03:30N 37°44' W 009°07'510.4
2017-Sep-29 03:00N 37°48' W 009°02'510.4
2017-Sep-29 02:30N 37°51' W 008°57'510.0
2017-Sep-29 02:00N 37°55' W 008°53'2 3.4
2017-Sep-29 01:28N 37°57' W 008°53'0 0.0
2017-Sep-29 00:58N 37°57' W 008°53'0 0.0
2017-Sep-29 00:28N 37°57' W 008°53'0 0.0
2017-Sep-28 23:58N 37°57' W 008°53'0 0.0
2017-Sep-28 23:28N 37°57' W 008°53'0 0.0
2017-Sep-28 22:58N 37°57' W 008°53'0 0.0
2017-Sep-28 22:28N 37°57' W 008°53'0 0.0
2017-Sep-28 21:58N 37°57' W 008°53'0 0.0
2017-Sep-28 21:28N 37°57' W 008°53'0 0.0
2017-Sep-28 20:58N 37°57' W 008°53'0 0.0
2017-Sep-28 20:28N 37°57' W 008°53'0 0.0
2017-Sep-28 19:58N 37°57' W 008°53'0 0.0
2017-Sep-28 19:28N 37°57' W 008°53'0 0.0
2017-Sep-28 18:58N 37°57' W 008°53'0 0.0
2017-Sep-28 18:28N 37°57' W 008°53'0 0.0
2017-Sep-28 17:58N 37°57' W 008°53'0 0.0
2017-Sep-28 17:28N 37°57' W 008°53'0 0.0
2017-Sep-28 16:58N 37°57' W 008°53'0 0.0
2017-Sep-28 16:28N 37°57' W 008°53'0 0.0
2017-Sep-28 15:58N 37°57' W 008°53'0 0.0
2017-Sep-28 15:28N 37°57' W 008°53'0 0.0
2017-Sep-28 14:58N 37°57' W 008°53'0 0.0
2017-Sep-28 14:28N 37°57' W 008°53'0 0.0
2017-Sep-28 13:58N 37°57' W 008°53'0 0.0
2017-Sep-28 13:28N 37°57' W 008°53'0 0.0
2017-Sep-28 12:58N 37°57' W 008°53'0 0.0
2017-Sep-28 12:28N 37°57' W 008°53'0 0.0
2017-Sep-28 11:58N 37°57' W 008°53'0 0.0
2017-Sep-28 11:28N 37°57' W 008°53'0 0.0
2017-Sep-28 10:58N 37°57' W 008°53'0 0.0
2017-Sep-28 10:28N 37°57' W 008°53'0 0.0
2017-Sep-28 09:58N 37°57' W 008°53'0 0.0
2017-Sep-28 09:28N 37°57' W 008°53'0 0.0
2017-Sep-28 08:58N 37°57' W 008°53'0 0.0
2017-Sep-28 08:28N 37°57' W 008°53'0 0.0
2017-Sep-28 07:58N 37°57' W 008°53'0 0.0
2017-Sep-28 07:28N 37°57' W 008°53'0 0.0
2017-Sep-28 06:58N 37°57' W 008°53'0 0.0
2017-Sep-28 06:28N 37°57' W 008°53'0 0.0
2017-Sep-28 05:58N 37°57' W 008°53'0 0.0
2017-Sep-28 05:28N 37°57' W 008°53'0 0.0
2017-Sep-28 04:58N 37°57' W 008°53'0 0.0
2017-Sep-28 04:28N 37°57' W 008°53'0 0.0
2017-Sep-28 03:58N 37°57' W 008°53'0 0.0
2017-Sep-28 03:28N 37°57' W 008°53'0 0.0
2017-Sep-28 02:58N 37°57' W 008°53'0 0.0
2017-Sep-28 02:28N 37°57' W 008°53'0 0.0
2017-Sep-28 01:58N 37°57' W 008°53'0 0.0
2017-Sep-28 01:28N 37°57' W 008°53'0 0.0
2017-Sep-28 00:58N 37°57' W 008°53'0 0.0
2017-Sep-28 00:28N 37°57' W 008°53'0 0.0
2017-Sep-27 23:58N 37°57' W 008°53'0 0.0
2017-Sep-27 23:28N 37°57' W 008°53'0 0.0
2017-Sep-27 22:58N 37°57' W 008°53'0 0.0
2017-Sep-27 22:28N 37°57' W 008°53'0 0.0
2017-Sep-27 21:58N 37°57' W 008°53'0 0.0
2017-Sep-27 21:28N 37°57' W 008°53'0 0.0
2017-Sep-27 20:58N 37°57' W 008°53'0 0.0
2017-Sep-27 20:28N 37°57' W 008°53'0 0.0
2017-Sep-27 20:00N 37°57' W 008°53'0 0.0
2017-Sep-27 19:30N 37°57' W 008°53'0 0.1
2017-Sep-27 19:00N 37°57' W 008°53'2 3.9
2017-Sep-27 18:30N 37°55' W 008°53'1 1.9
2017-Sep-27 17:56N 37°54' W 008°52'0 0.0
2017-Sep-27 17:29N 37°54' W 008°52'0 0.0
2017-Sep-27 16:59N 37°54' W 008°52'0 0.0
2017-Sep-27 16:26N 37°54' W 008°52'0 0.0
2017-Sep-27 15:59N 37°54' W 008°52'0 0.0
2017-Sep-27 15:29N 37°54' W 008°52'0 0.0
2017-Sep-27 14:59N 37°54' W 008°52'0 0.0
2017-Sep-27 14:29N 37°54' W 008°52'0 0.0
2017-Sep-27 13:59N 37°54' W 008°52'0 0.0
2017-Sep-27 13:29N 37°54' W 008°52'0 0.0
2017-Sep-27 12:59N 37°54' W 008°52'0 0.0
2017-Sep-27 12:29N 37°54' W 008°52'0 0.0
2017-Sep-27 11:59N 37°54' W 008°52'0 0.0
2017-Sep-27 11:29N 37°54' W 008°52'0 0.4
2017-Sep-27 11:01N 37°54' W 008°52'2 3.6
2017-Sep-27 10:31N 37°53' W 008°54'3 6.2
2017-Sep-27 10:01N 37°52' W 008°58'4 7.0
2017-Sep-27 09:30N 37°52' W 009°03'0 0.8
2017-Sep-27 09:00N 37°52' W 009°03'0 0.8
2017-Sep-27 08:30N 37°53' W 009°03'0 0.9
2017-Sep-27 08:01N 37°53' W 009°04'0 0.7
2017-Sep-27 07:31N 37°53' W 009°04'0 0.8
2017-Sep-27 07:00N 37°54' W 009°04'0 0.8
2017-Sep-27 06:31N 37°54' W 009°05'0 0.9
2017-Sep-27 06:01N 37°54' W 009°05'0 0.9
2017-Sep-27 05:31N 37°54' W 009°05'0 0.8
2017-Sep-27 05:01N 37°55' W 009°06'0 0.6
2017-Sep-27 04:31N 37°55' W 009°06'0 0.6
2017-Sep-27 04:01N 37°55' W 009°06'0 0.6
2017-Sep-27 03:30N 37°55' W 009°07'0 0.6
2017-Sep-27 03:01N 37°55' W 009°07'0 0.7
2017-Sep-27 02:31N 37°56' W 009°07'0 0.7
2017-Sep-27 02:01N 37°56' W 009°08'0 0.5
2017-Sep-27 01:31N 37°56' W 009°08'0 0.5
2017-Sep-27 01:00N 37°56' W 009°08'0 0.8
2017-Sep-27 00:31N 37°57' W 009°07'0 1.0
2017-Sep-27 00:01N 37°57' W 009°07'1 1.2
2017-Sep-26 23:31N 37°58' W 009°07'1 1.2
2017-Sep-26 23:01N 37°58' W 009°06'1 1.3
2017-Sep-26 22:31N 37°59' W 009°06'1 1.4
2017-Sep-26 22:01N 37°59' W 009°06'1 1.5
2017-Sep-26 21:31N 38°00' W 009°05'1 2.0
2017-Sep-26 21:00N 37°59' W 009°04'611.6
2017-Sep-26 20:30N 37°54' W 009°02'3 6.5
2017-Sep-26 20:00N 37°51' W 009°01'1 1.7
2017-Sep-26 19:31N 37°52' W 009°01'1 1.9
2017-Sep-26 19:01N 37°53' W 009°01'1 1.7
2017-Sep-26 18:31N 37°53' W 009°01'1 1.5
2017-Sep-26 18:01N 37°54' W 009°02'1 1.6
2017-Sep-26 17:31N 37°55' W 009°02'1 1.6
2017-Sep-26 17:00N 37°56' W 009°02'1 1.7
2017-Sep-26 16:31N 37°56' W 009°03'1 1.7
2017-Sep-26 16:01N 37°57' W 009°04'1 1.4
2017-Sep-26 15:31N 37°58' W 009°04'1 1.4
2017-Sep-26 15:01N 37°58' W 009°05'0 0.9
2017-Sep-26 14:31N 37°59' W 009°05'0 1.0
2017-Sep-26 14:01N 37°59' W 009°05'0 1.0
2017-Sep-26 13:30N 37°60' W 009°05'1 1.2
2017-Sep-26 13:01N 38°00' W 009°05'1 1.3
2017-Sep-26 12:31N 38°01' W 009°05'2 4.6
2017-Sep-26 12:01N 38°03' W 009°03'611.3
2017-Sep-26 11:31N 38°07' W 008°58'4 7.9
2017-Sep-26 11:01N 38°10' W 008°54'0 0.9
2017-Sep-26 10:31N 38°09' W 008°55'0 0.9
2017-Sep-26 10:01N 38°09' W 008°55'1 1.0
2017-Sep-26 09:30N 38°09' W 008°56'1 1.0
2017-Sep-26 09:01N 38°09' W 008°57'0 1.0
2017-Sep-26 08:31N 38°09' W 008°57'0 0.9
2017-Sep-26 08:00N 38°08' W 008°58'0 1.0
2017-Sep-26 07:31N 38°08' W 008°58'0 1.0
2017-Sep-26 07:01N 38°08' W 008°59'0 0.9
2017-Sep-26 06:31N 38°07' W 008°59'0 0.9
2017-Sep-26 06:01N 38°07' W 008°60'0 0.8
2017-Sep-26 05:31N 38°07' W 008°60'0 0.8
2017-Sep-26 05:01N 38°07' W 009°00'0 0.8
2017-Sep-26 04:31N 38°06' W 009°01'0 0.8
2017-Sep-26 04:01N 38°06' W 009°01'0 0.7
2017-Sep-26 03:30N 38°06' W 009°01'0 0.6
2017-Sep-26 03:01N 38°06' W 009°01'0 0.4
2017-Sep-26 02:30N 38°05' W 009°02'0 0.8
2017-Sep-26 02:01N 38°05' W 009°02'0 0.8
2017-Sep-26 01:31N 38°05' W 009°03'0 0.8
2017-Sep-26 01:00N 38°05' W 009°03'0 0.9
2017-Sep-26 00:31N 38°05' W 009°04'0 0.9
2017-Sep-26 00:00N 38°05' W 009°04'0 0.9
2017-Sep-25 23:30N 38°05' W 009°05'0 0.9
2017-Sep-25 23:01N 38°05' W 009°05'1 1.1
2017-Sep-25 22:31N 38°05' W 009°06'1 1.5
2017-Sep-25 22:00N 38°04' W 009°06'510.7
2017-Sep-25 21:30N 37°59' W 009°05'611.1
2017-Sep-25 21:00N 37°53' W 009°05'0 0.9
2017-Sep-25 20:31N 37°53' W 009°04'1 1.7
2017-Sep-25 20:01N 37°54' W 009°04'1 1.7
2017-Sep-25 19:30N 37°55' W 009°04'1 1.6
2017-Sep-25 19:00N 37°55' W 009°04'1 1.8
2017-Sep-25 18:31N 37°56' W 009°04'1 1.7
2017-Sep-25 18:01N 37°57' W 009°05'1 1.8
2017-Sep-25 17:31N 37°58' W 009°05'1 2.1
2017-Sep-25 17:00N 37°59' W 009°05'1 2.0
2017-Sep-25 16:31N 38°00' W 009°06'1 1.8
2017-Sep-25 16:00N 38°01' W 009°06'1 1.7
2017-Sep-25 15:31N 38°02' W 009°06'1 1.6
2017-Sep-25 15:01N 38°03' W 009°06'1 2.2
2017-Sep-25 14:31N 38°03' W 009°05'4 8.7
2017-Sep-25 14:00N 38°04' W 008°60'4 8.1
2017-Sep-25 13:31N 38°04' W 008°55'1 1.4
2017-Sep-25 13:01N 38°04' W 008°55'1 1.4
2017-Sep-25 12:31N 38°04' W 008°56'1 1.3
2017-Sep-25 12:01N 38°03' W 008°57'1 1.3
2017-Sep-25 11:30N 38°03' W 008°58'1 1.2
2017-Sep-25 11:01N 38°03' W 008°59'1 1.1
2017-Sep-25 10:30N 38°03' W 008°59'0 1.0
2017-Sep-25 10:01N 38°03' W 009°00'0 0.3
2017-Sep-25 09:31N 38°03' W 008°60'4 7.5
2017-Sep-25 09:01N 38°07' W 008°59'611.2
2017-Sep-25 08:31N 38°13' W 008°59'611.1
2017-Sep-25 08:01N 38°18' W 008°59'510.3
2017-Sep-25 07:30N 38°23' W 008°60'2 4.9
2017-Sep-25 06:59N 38°26' W 008°59'5 9.2
2017-Sep-25 06:24N 38°30' W 008°55'3 7.4
2017-Sep-25 06:00N 38°29' W 008°51'3 5.5
2017-Sep-25 05:27N 38°28' W 008°48'1 0.1
2017-Sep-24 20:25N 38°29' W 008°47'0 0.1
2017-Sep-24 19:55N 38°29' W 008°47'0 0.0
2017-Sep-24 19:28N 38°29' W 008°47'0 0.0
2017-Sep-24 18:58N 38°29' W 008°47'0 0.0
2017-Sep-24 18:28N 38°29' W 008°47'0 0.0
2017-Sep-24 17:58N 38°29' W 008°47'0 0.0
2017-Sep-24 17:28N 38°29' W 008°47'0 0.0
2017-Sep-24 16:55N 38°29' W 008°47'0 0.0
2017-Sep-24 16:28N 38°29' W 008°47'0 0.0
2017-Sep-24 15:58N 38°29' W 008°47'0 0.0
2017-Sep-24 15:28N 38°29' W 008°47'0 0.0
2017-Sep-24 14:58N 38°29' W 008°47'0 0.0
2017-Sep-24 14:28N 38°29' W 008°47'0 0.0
2017-Sep-24 13:58N 38°29' W 008°47'0 0.0
2017-Sep-24 13:28N 38°29' W 008°47'0 0.0
2017-Sep-24 12:58N 38°29' W 008°47'0 0.0
2017-Sep-24 12:28N 38°29' W 008°47'0 0.0
2017-Sep-24 11:58N 38°29' W 008°47'0 0.0
2017-Sep-24 11:28N 38°29' W 008°47'0 0.0
2017-Sep-24 10:58N 38°29' W 008°47'0 0.0
2017-Sep-24 10:25N 38°29' W 008°47'0 0.0
2017-Sep-24 09:58N 38°29' W 008°47'0 0.0
2017-Sep-24 09:28N 38°29' W 008°47'0 0.0
2017-Sep-24 08:58N 38°29' W 008°47'0 0.0
2017-Sep-24 08:28N 38°29' W 008°47'0 0.0
2017-Sep-24 07:58N 38°29' W 008°47'0 0.0
2017-Sep-24 07:28N 38°29' W 008°47'0 0.0
2017-Sep-24 06:58N 38°29' W 008°47'  
2017-Sep-21 16:15N 38°29' W 008°47'0 0.0
2017-Sep-21 15:57N 38°29' W 008°47'0 0.0
2017-Sep-21 15:27N 38°29' W 008°47'0 0.0
2017-Sep-21 13:24N 38°29' W 008°47'0 0.0
2017-Sep-21 12:54N 38°29' W 008°47'0 0.0
2017-Sep-21 12:24N 38°29' W 008°47'0 0.0
2017-Sep-21 11:57N 38°29' W 008°47'0 0.0
2017-Sep-21 11:30N 38°29' W 008°47'0 0.0
2017-Sep-21 10:51N 38°29' W 008°47'0 0.0
2017-Sep-21 09:57N 38°29' W 008°47'0 0.0
2017-Sep-21 09:18N 38°29' W 008°47'0 0.0
2017-Sep-21 08:57N 38°29' W 008°47'  
Track history (hours):
 
Tides and Currents Weather Stations Pressure Air Temp Water Temp Dewpoint Dewpoint Depression Visibility Wind Speed Wind Dir Waves Ship Positions

Pacific Topaz

Last reported at 2017-Oct-01 08:53 UTC. Time now 2017-Oct-22 13:25 UTC.
Position N 27°37' W 015°16'.
Warning: this ship's position is 21 days out of date.

Length 183 m; draft 11.7 m.

Type: Tanker. MMSI: 636015703.

Date/timePositionNaut miles runAvg speedWind from/ knotsBaromVisibWave heightAir tempDewpointWater temp
2017-Oct-01 08:53N 27°37' W 015°16'512.7
2017-Oct-01 08:30N 27°41' W 015°13'612.7
2017-Oct-01 08:00N 27°47' W 015°10'612.8
2017-Oct-01 07:30N 27°52' W 015°07'713.1
2017-Oct-01 07:00N 27°59' W 015°04'713.8
2017-Oct-01 06:30N 28°05' W 015°01'713.2
2017-Oct-01 06:00N 28°11' W 014°59'612.7
2017-Oct-01 05:31N 28°17' W 014°56'712.9
2017-Oct-01 05:00N 28°23' W 014°53'713.0
2017-Oct-01 04:30N 28°29' W 014°50'612.7
2017-Oct-01 04:01N 28°35' W 014°47'612.7
2017-Oct-01 03:31N 28°41' W 014°44'912.6
2017-Oct-01 02:50N 28°48' W 014°41'37212.8
2017-Sep-29 21:46N 34°23' W 011°30'312.7
2017-Sep-29 21:30N 34°25' W 011°28'1112.8
2017-Sep-29 20:40N 34°35' W 011°22'212.7
2017-Sep-29 20:31N 34°37' W 011°21'712.9
2017-Sep-29 19:56N 34°44' W 011°17'613.1
2017-Sep-29 19:30N 34°49' W 011°14'6113.2
2017-Sep-29 14:53N 35°43' W 010°42'513.3
2017-Sep-29 14:30N 35°48' W 010°39'612.9
2017-Sep-29 14:00N 35°54' W 010°36'1513.1
2017-Sep-29 12:52N 36°07' W 010°28'513.3
2017-Sep-29 12:29N 36°12' W 010°25'713.2
2017-Sep-29 11:59N 36°18' W 010°22'613.1
2017-Sep-29 11:30N 36°23' W 010°18'613.0
2017-Sep-29 11:00N 36°29' W 010°14'612.8
2017-Sep-29 10:30N 36°35' W 010°11'712.7
2017-Sep-29 09:59N 36°41' W 010°07'612.7
2017-Sep-29 09:30N 36°46' W 010°04'612.8
2017-Sep-29 09:00N 36°52' W 010°01'612.7
2017-Sep-29 08:30N 36°58' W 009°57'612.8
2017-Sep-29 08:00N 37°04' W 009°53'613.0
2017-Sep-29 07:30N 37°09' W 009°50'612.8
2017-Sep-29 07:00N 37°15' W 009°46'612.8
2017-Sep-29 06:31N 37°20' W 009°40'612.9
2017-Sep-29 06:00N 37°25' W 009°35'612.5
2017-Sep-29 05:30N 37°28' W 009°29'612.5
2017-Sep-29 05:00N 37°32' W 009°23'612.7
2017-Sep-29 04:30N 37°37' W 009°17'611.6
2017-Sep-29 04:00N 37°41' W 009°12'510.4
2017-Sep-29 03:30N 37°44' W 009°07'510.4
2017-Sep-29 03:00N 37°48' W 009°02'510.4
2017-Sep-29 02:30N 37°51' W 008°57'510.0
2017-Sep-29 02:00N 37°55' W 008°53'2 3.4
2017-Sep-29 01:28N 37°57' W 008°53'0 0.0
2017-Sep-29 00:58N 37°57' W 008°53'0 0.0
2017-Sep-29 00:28N 37°57' W 008°53'0 0.0
2017-Sep-28 23:58N 37°57' W 008°53'0 0.0
2017-Sep-28 23:28N 37°57' W 008°53'0 0.0
2017-Sep-28 22:58N 37°57' W 008°53'0 0.0
2017-Sep-28 22:28N 37°57' W 008°53'0 0.0
2017-Sep-28 21:58N 37°57' W 008°53'0 0.0
2017-Sep-28 21:28N 37°57' W 008°53'0 0.0
2017-Sep-28 20:58N 37°57' W 008°53'0 0.0
2017-Sep-28 20:28N 37°57' W 008°53'0 0.0
2017-Sep-28 19:58N 37°57' W 008°53'0 0.0
2017-Sep-28 19:28N 37°57' W 008°53'0 0.0
2017-Sep-28 18:58N 37°57' W 008°53'0 0.0
2017-Sep-28 18:28N 37°57' W 008°53'0 0.0
2017-Sep-28 17:58N 37°57' W 008°53'0 0.0
2017-Sep-28 17:28N 37°57' W 008°53'0 0.0
2017-Sep-28 16:58N 37°57' W 008°53'0 0.0
2017-Sep-28 16:28N 37°57' W 008°53'0 0.0
2017-Sep-28 15:58N 37°57' W 008°53'0 0.0
2017-Sep-28 15:28N 37°57' W 008°53'0 0.0
2017-Sep-28 14:58N 37°57' W 008°53'0 0.0
2017-Sep-28 14:28N 37°57' W 008°53'0 0.0
2017-Sep-28 13:58N 37°57' W 008°53'0 0.0
2017-Sep-28 13:28N 37°57' W 008°53'0 0.0
2017-Sep-28 12:58N 37°57' W 008°53'0 0.0
2017-Sep-28 12:28N 37°57' W 008°53'0 0.0
2017-Sep-28 11:58N 37°57' W 008°53'0 0.0
2017-Sep-28 11:28N 37°57' W 008°53'0 0.0
2017-Sep-28 10:58N 37°57' W 008°53'0 0.0
2017-Sep-28 10:28N 37°57' W 008°53'0 0.0
2017-Sep-28 09:58N 37°57' W 008°53'0 0.0
2017-Sep-28 09:28N 37°57' W 008°53'0 0.0
2017-Sep-28 08:58N 37°57' W 008°53'0 0.0
2017-Sep-28 08:28N 37°57' W 008°53'0 0.0
2017-Sep-28 07:58N 37°57' W 008°53'0 0.0
2017-Sep-28 07:28N 37°57' W 008°53'0 0.0
2017-Sep-28 06:58N 37°57' W 008°53'0 0.0
2017-Sep-28 06:28N 37°57' W 008°53'0 0.0
2017-Sep-28 05:58N 37°57' W 008°53'0 0.0
2017-Sep-28 05:28N 37°57' W 008°53'0 0.0
2017-Sep-28 04:58N 37°57' W 008°53'0 0.0
2017-Sep-28 04:28N 37°57' W 008°53'0 0.0
2017-Sep-28 03:58N 37°57' W 008°53'0 0.0
2017-Sep-28 03:28N 37°57' W 008°53'0 0.0
2017-Sep-28 02:58N 37°57' W 008°53'0 0.0
2017-Sep-28 02:28N 37°57' W 008°53'0 0.0
2017-Sep-28 01:58N 37°57' W 008°53'0 0.0
2017-Sep-28 01:28N 37°57' W 008°53'0 0.0
2017-Sep-28 00:58N 37°57' W 008°53'0 0.0
2017-Sep-28 00:28N 37°57' W 008°53'0 0.0
2017-Sep-27 23:58N 37°57' W 008°53'0 0.0
2017-Sep-27 23:28N 37°57' W 008°53'0 0.0
2017-Sep-27 22:58N 37°57' W 008°53'0 0.0
2017-Sep-27 22:28N 37°57' W 008°53'0 0.0
2017-Sep-27 21:58N 37°57' W 008°53'0 0.0
2017-Sep-27 21:28N 37°57' W 008°53'0 0.0
2017-Sep-27 20:58N 37°57' W 008°53'0 0.0
2017-Sep-27 20:28N 37°57' W 008°53'0 0.0
2017-Sep-27 20:00N 37°57' W 008°53'0 0.0
2017-Sep-27 19:30N 37°57' W 008°53'0 0.1
2017-Sep-27 19:00N 37°57' W 008°53'2 3.9
2017-Sep-27 18:30N 37°55' W 008°53'1 1.9
2017-Sep-27 17:56N 37°54' W 008°52'0 0.0
2017-Sep-27 17:29N 37°54' W 008°52'0 0.0
2017-Sep-27 16:59N 37°54' W 008°52'0 0.0
2017-Sep-27 16:26N 37°54' W 008°52'0 0.0
2017-Sep-27 15:59N 37°54' W 008°52'0 0.0
2017-Sep-27 15:29N 37°54' W 008°52'0 0.0
2017-Sep-27 14:59N 37°54' W 008°52'0 0.0
2017-Sep-27 14:29N 37°54' W 008°52'0 0.0
2017-Sep-27 13:59N 37°54' W 008°52'0 0.0
2017-Sep-27 13:29N 37°54' W 008°52'0 0.0
2017-Sep-27 12:59N 37°54' W 008°52'0 0.0
2017-Sep-27 12:29N 37°54' W 008°52'0 0.0
2017-Sep-27 11:59N 37°54' W 008°52'0 0.0
2017-Sep-27 11:29N 37°54' W 008°52'0 0.4
2017-Sep-27 11:01N 37°54' W 008°52'2 3.6
2017-Sep-27 10:31N 37°53' W 008°54'3 6.2
2017-Sep-27 10:01N 37°52' W 008°58'4 7.0
2017-Sep-27 09:30N 37°52' W 009°03'0 0.8
2017-Sep-27 09:00N 37°52' W 009°03'0 0.8
2017-Sep-27 08:30N 37°53' W 009°03'0 0.9
2017-Sep-27 08:01N 37°53' W 009°04'0 0.7
2017-Sep-27 07:31N 37°53' W 009°04'0 0.8
2017-Sep-27 07:00N 37°54' W 009°04'0 0.8
2017-Sep-27 06:31N 37°54' W 009°05'0 0.9
2017-Sep-27 06:01N 37°54' W 009°05'0 0.9
2017-Sep-27 05:31N 37°54' W 009°05'0 0.8
2017-Sep-27 05:01N 37°55' W 009°06'0 0.6
2017-Sep-27 04:31N 37°55' W 009°06'0 0.6
2017-Sep-27 04:01N 37°55' W 009°06'0 0.6
2017-Sep-27 03:30N 37°55' W 009°07'0 0.6
2017-Sep-27 03:01N 37°55' W 009°07'0 0.7
2017-Sep-27 02:31N 37°56' W 009°07'0 0.7
2017-Sep-27 02:01N 37°56' W 009°08'0 0.5
2017-Sep-27 01:31N 37°56' W 009°08'0 0.5
2017-Sep-27 01:00N 37°56' W 009°08'0 0.8
2017-Sep-27 00:31N 37°57' W 009°07'0 1.0
2017-Sep-27 00:01N 37°57' W 009°07'1 1.2
2017-Sep-26 23:31N 37°58' W 009°07'1 1.2
2017-Sep-26 23:01N 37°58' W 009°06'1 1.3
2017-Sep-26 22:31N 37°59' W 009°06'1 1.4
2017-Sep-26 22:01N 37°59' W 009°06'1 1.5
2017-Sep-26 21:31N 38°00' W 009°05'1 2.0
2017-Sep-26 21:00N 37°59' W 009°04'611.6
2017-Sep-26 20:30N 37°54' W 009°02'3 6.5
2017-Sep-26 20:00N 37°51' W 009°01'1 1.7
2017-Sep-26 19:31N 37°52' W 009°01'1 1.9
2017-Sep-26 19:01N 37°53' W 009°01'1 1.7
2017-Sep-26 18:31N 37°53' W 009°01'1 1.5
2017-Sep-26 18:01N 37°54' W 009°02'1 1.6
2017-Sep-26 17:31N 37°55' W 009°02'1 1.6
2017-Sep-26 17:00N 37°56' W 009°02'1 1.7
2017-Sep-26 16:31N 37°56' W 009°03'1 1.7
2017-Sep-26 16:01N 37°57' W 009°04'1 1.4
2017-Sep-26 15:31N 37°58' W 009°04'1 1.4
2017-Sep-26 15:01N 37°58' W 009°05'0 0.9
2017-Sep-26 14:31N 37°59' W 009°05'0 1.0
2017-Sep-26 14:01N 37°59' W 009°05'0 1.0
2017-Sep-26 13:30N 37°60' W 009°05'1 1.2
2017-Sep-26 13:01N 38°00' W 009°05'1 1.3
2017-Sep-26 12:31N 38°01' W 009°05'2 4.6
2017-Sep-26 12:01N 38°03' W 009°03'611.3
2017-Sep-26 11:31N 38°07' W 008°58'4 7.9
2017-Sep-26 11:01N 38°10' W 008°54'0 0.9
2017-Sep-26 10:31N 38°09' W 008°55'0 0.9
2017-Sep-26 10:01N 38°09' W 008°55'1 1.0
2017-Sep-26 09:30N 38°09' W 008°56'1 1.0
2017-Sep-26 09:01N 38°09' W 008°57'0 1.0
2017-Sep-26 08:31N 38°09' W 008°57'0 0.9
2017-Sep-26 08:00N 38°08' W 008°58'0 1.0
2017-Sep-26 07:31N 38°08' W 008°58'0 1.0
2017-Sep-26 07:01N 38°08' W 008°59'0 0.9
2017-Sep-26 06:31N 38°07' W 008°59'0 0.9
2017-Sep-26 06:01N 38°07' W 008°60'0 0.8
2017-Sep-26 05:31N 38°07' W 008°60'0 0.8
2017-Sep-26 05:01N 38°07' W 009°00'0 0.8
2017-Sep-26 04:31N 38°06' W 009°01'0 0.8
2017-Sep-26 04:01N 38°06' W 009°01'0 0.7
2017-Sep-26 03:30N 38°06' W 009°01'0 0.6
2017-Sep-26 03:01N 38°06' W 009°01'0 0.4
2017-Sep-26 02:30N 38°05' W 009°02'0 0.8
2017-Sep-26 02:01N 38°05' W 009°02'0 0.8
2017-Sep-26 01:31N 38°05' W 009°03'0 0.8
2017-Sep-26 01:00N 38°05' W 009°03'0 0.9
2017-Sep-26 00:31N 38°05' W 009°04'0 0.9
2017-Sep-26 00:00N 38°05' W 009°04'0 0.9
2017-Sep-25 23:30N 38°05' W 009°05'0 0.9
2017-Sep-25 23:01N 38°05' W 009°05'1 1.1
2017-Sep-25 22:31N 38°05' W 009°06'1 1.5
2017-Sep-25 22:00N 38°04' W 009°06'510.7
2017-Sep-25 21:30N 37°59' W 009°05'611.1
2017-Sep-25 21:00N 37°53' W 009°05'0 0.9
2017-Sep-25 20:31N 37°53' W 009°04'1 1.7
2017-Sep-25 20:01N 37°54' W 009°04'1 1.7
2017-Sep-25 19:30N 37°55' W 009°04'1 1.6
2017-Sep-25 19:00N 37°55' W 009°04'1 1.8
2017-Sep-25 18:31N 37°56' W 009°04'1 1.7
2017-Sep-25 18:01N 37°57' W 009°05'1 1.8
2017-Sep-25 17:31N 37°58' W 009°05'1 2.1
2017-Sep-25 17:00N 37°59' W 009°05'1 2.0
2017-Sep-25 16:31N 38°00' W 009°06'1 1.8
2017-Sep-25 16:00N 38°01' W 009°06'1 1.7
2017-Sep-25 15:31N 38°02' W 009°06'1 1.6
2017-Sep-25 15:01N 38°03' W 009°06'1 2.2
2017-Sep-25 14:31N 38°03' W 009°05'4 8.7
2017-Sep-25 14:00N 38°04' W 008°60'4 8.1
2017-Sep-25 13:31N 38°04' W 008°55'1 1.4
2017-Sep-25 13:01N 38°04' W 008°55'1 1.4
2017-Sep-25 12:31N 38°04' W 008°56'1 1.3
2017-Sep-25 12:01N 38°03' W 008°57'1 1.3
2017-Sep-25 11:30N 38°03' W 008°58'1 1.2
2017-Sep-25 11:01N 38°03' W 008°59'1 1.1
2017-Sep-25 10:30N 38°03' W 008°59'0 1.0
2017-Sep-25 10:01N 38°03' W 009°00'0 0.3
2017-Sep-25 09:31N 38°03' W 008°60'4 7.5
2017-Sep-25 09:01N 38°07' W 008°59'611.2
2017-Sep-25 08:31N 38°13' W 008°59'611.1
2017-Sep-25 08:01N 38°18' W 008°59'510.3
2017-Sep-25 07:30N 38°23' W 008°60'2 4.9
2017-Sep-25 06:59N 38°26' W 008°59'5 9.2
2017-Sep-25 06:24N 38°30' W 008°55'3 7.4
2017-Sep-25 06:00N 38°29' W 008°51'3 5.5
2017-Sep-25 05:27N 38°28' W 008°48'1 0.1
2017-Sep-24 20:25N 38°29' W 008°47'0 0.1
2017-Sep-24 19:55N 38°29' W 008°47'0 0.0
2017-Sep-24 19:28N 38°29' W 008°47'0 0.0
2017-Sep-24 18:58N 38°29' W 008°47'0 0.0
2017-Sep-24 18:28N 38°29' W 008°47'0 0.0
2017-Sep-24 17:58N 38°29' W 008°47'0 0.0
2017-Sep-24 17:28N 38°29' W 008°47'0 0.0
2017-Sep-24 16:55N 38°29' W 008°47'0 0.0
2017-Sep-24 16:28N 38°29' W 008°47'0 0.0
2017-Sep-24 15:58N 38°29' W 008°47'0 0.0
2017-Sep-24 15:28N 38°29' W 008°47'0 0.0
2017-Sep-24 14:58N 38°29' W 008°47'0 0.0
2017-Sep-24 14:28N 38°29' W 008°47'0 0.0
2017-Sep-24 13:58N 38°29' W 008°47'0 0.0
2017-Sep-24 13:28N 38°29' W 008°47'0 0.0
2017-Sep-24 12:58N 38°29' W 008°47'0 0.0
2017-Sep-24 12:28N 38°29' W 008°47'0 0.0
2017-Sep-24 11:58N 38°29' W 008°47'0 0.0
2017-Sep-24 11:28N 38°29' W 008°47'0 0.0
2017-Sep-24 10:58N 38°29' W 008°47'0 0.0
2017-Sep-24 10:25N 38°29' W 008°47'0 0.0
2017-Sep-24 09:58N 38°29' W 008°47'0 0.0
2017-Sep-24 09:28N 38°29' W 008°47'0 0.0
2017-Sep-24 08:58N 38°29' W 008°47'0 0.0
2017-Sep-24 08:28N 38°29' W 008°47'0 0.0
2017-Sep-24 07:58N 38°29' W 008°47'0 0.0
2017-Sep-24 07:28N 38°29' W 008°47'0 0.0
2017-Sep-24 06:58N 38°29' W 008°47'  
2017-Sep-21 16:15N 38°29' W 008°47'0 0.0
2017-Sep-21 15:57N 38°29' W 008°47'0 0.0
2017-Sep-21 15:27N 38°29' W 008°47'0 0.0
2017-Sep-21 13:24N 38°29' W 008°47'0 0.0
2017-Sep-21 12:54N 38°29' W 008°47'0 0.0
2017-Sep-21 12:24N 38°29' W 008°47'0 0.0
2017-Sep-21 11:57N 38°29' W 008°47'0 0.0
2017-Sep-21 11:30N 38°29' W 008°47'0 0.0
2017-Sep-21 10:51N 38°29' W 008°47'0 0.0
2017-Sep-21 09:57N 38°29' W 008°47'0 0.0
2017-Sep-21 09:18N 38°29' W 008°47'0 0.0
2017-Sep-21 08:57N 38°29' W 008°47'  

Dump ship's entire track history